Time;durP1;ratioP1;P1;durP2;ratioP2;P2;SDS_P1;SDS_P2;PMS_P1;PMS_P2;Temp;Humidity;BMP_temperature;BMP_pressure;BME280_temperature;BME280_humidity;BME280_pressure;Samples;Min_cycle;Max_cycle;Signal;HPM_P1;HPM_P2
2021/04/22 00:01:32;;;;;;;12.13;2.92;;;;;;;5.31;60.80;102455.81;5134528;28;20388;-40
2021/04/22 00:03:57;;;;;;;13.10;2.50;;;;;;;5.35;60.70;102452.69;5133438;28;20033;-40
2021/04/22 00:06:23;;;;;;;13.93;3.17;;;;;;;5.35;60.42;102451.84;5133956;27;20037;-40
2021/04/22 00:08:48;;;;;;;13.03;3.40;;;;;;;5.33;60.82;102465.41;5137186;27;20054;-40
2021/04/22 00:11:14;;;;;;;14.50;2.73;;;;;;;5.27;61.12;102452.63;5138104;27;20058;-40
2021/04/22 00:13:40;;;;;;;15.38;3.50;;;;;;;5.18;61.51;102450.91;5137320;27;20027;-40
2021/04/22 00:16:06;;;;;;;9.13;3.53;;;;;;;5.15;61.49;102456.56;5137406;27;20454;-40
2021/04/22 00:18:31;;;;;;;14.80;2.87;;;;;;;5.18;60.92;102461.63;5137237;27;20114;-40
2021/04/22 00:20:57;;;;;;;13.17;2.87;;;;;;;5.19;60.95;102454.41;5136936;27;20020;-40
2021/04/22 00:23:22;;;;;;;11.20;2.70;;;;;;;5.13;61.30;102453.19;5136854;27;20019;-40
2021/04/22 00:25:47;;;;;;;13.63;3.10;;;;;;;5.14;60.97;102460.25;5137432;27;20059;-40
2021/04/22 00:28:14;;;;;;;9.53;2.50;;;;;;;5.16;60.54;102467.13;5136781;27;20034;-40
2021/04/22 00:30:40;;;;;;;;;;;;;;;5.30;59.39;102467.56;5137694;27;20023;-40
2021/04/22 00:33:15;;;;;;;13.30;2.97;;;;;;;4.99;60.95;102462.63;5137155;27;20267;-40
2021/04/22 00:35:40;;;;;;;19.27;3.90;;;;;;;4.94;61.38;102466.78;5137080;27;20479;-40
2021/04/22 00:38:07;;;;;;;10.70;3.20;;;;;;;4.95;61.39;102465.78;5136569;27;20114;-40
2021/04/22 00:40:34;;;;;;;11.90;2.88;;;;;;;4.86;61.31;102463.00;5136481;27;20018;-40
2021/04/22 00:43:01;;;;;;;13.82;3.55;;;;;;;4.88;61.81;102468.22;5136365;27;20027;-40
2021/04/22 00:45:27;;;;;;;12.55;2.97;;;;;;;4.75;61.95;102465.09;5137155;27;20056;-40
2021/04/22 00:47:53;;;;;;;13.63;3.10;;;;;;;4.79;61.98;102467.31;5136316;27;20489;-40
2021/04/22 00:50:21;;;;;;;12.90;2.93;;;;;;;4.78;61.32;102467.47;5137132;27;20463;-40
2021/04/22 00:52:47;;;;;;;12.13;3.08;;;;;;;4.63;62.23;102470.66;5135063;27;20322;-40
2021/04/22 00:55:13;;;;;;;12.10;3.05;;;;;;;4.69;62.46;102465.72;5136911;27;20051;-40
2021/04/22 00:57:39;;;;;;;13.43;2.92;;;;;;;4.59;62.17;102476.50;5136723;27;20467;-40
2021/04/22 01:00:07;;;;;;;12.20;2.80;;;;;;;4.56;62.26;102482.16;5136661;27;20102;-40
2021/04/22 01:02:33;;;;;;;12.55;3.40;;;;;;;4.48;62.42;102480.22;5136579;27;20038;-40
2021/04/22 01:04:59;;;;;;;15.00;3.05;;;;;;;4.48;62.67;102490.09;5136544;27;20038;-41
2021/04/22 01:07:24;;;;;;;15.10;3.20;;;;;;;4.45;63.28;102488.56;5136480;27;20463;-40
2021/04/22 01:09:50;;;;;;;12.47;3.20;;;;;;;4.39;63.35;102486.47;5136205;27;20390;-40
2021/04/22 01:12:15;;;;;;;11.43;3.03;;;;;;;4.39;62.92;102489.16;5136106;27;20019;-40
2021/04/22 01:14:40;;;;;;;13.93;3.60;;;;;;;4.41;62.18;102494.38;5136348;27;20378;-40
2021/04/22 01:17:08;;;;;;;12.87;2.87;;;;;;;4.40;63.15;102496.22;5136023;27;20462;-40
2021/04/22 01:19:34;;;;;;;11.48;3.03;;;;;;;4.37;63.31;102488.47;5136461;27;20023;-40
2021/04/22 01:21:59;;;;;;;13.17;2.67;;;;;;;4.34;62.63;102500.34;5135679;27;20060;-40
2021/04/22 01:24:25;;;;;;;12.37;2.53;;;;;;;4.43;63.00;102495.06;5136493;27;20592;-40
2021/04/22 01:26:50;;;;;;;12.57;2.93;;;;;;;4.27;63.74;102503.75;5136259;27;20034;-40
2021/04/22 01:29:16;;;;;;;14.10;3.10;;;;;;;4.29;63.76;102497.25;5136125;27;20035;-40
2021/04/22 01:31:41;;;;;;;12.83;2.90;;;;;;;4.24;63.73;102502.22;5135750;27;20023;-40
2021/04/22 01:34:10;;;;;;;12.67;3.43;;;;;;;4.20;63.60;102503.53;5135965;27;20459;-40
2021/04/22 01:36:39;;;;;;;14.85;3.20;;;;;;;4.19;63.86;102504.50;5135829;27;20026;-40
2021/04/22 01:39:07;;;;;;;14.57;3.65;;;;;;;4.18;64.51;102508.16;5135782;27;20114;-40
2021/04/22 01:41:33;;;;;;;14.88;3.17;;;;;;;4.20;63.40;102497.28;5135254;27;20026;-44
2021/04/22 01:43:59;;;;;;;15.70;4.10;;;;;;;4.29;64.00;102501.75;5135457;27;20023;-40
2021/04/22 01:46:25;;;;;;;12.05;3.63;;;;;;;4.13;63.88;102513.13;5135197;27;20458;-40
2021/04/22 01:48:51;;;;;;;11.52;3.10;;;;;;;4.21;64.03;102507.88;5135307;27;20459;-40
2021/04/22 01:51:17;;;;;;;;;;;;;;;4.35;62.33;102511.91;5136555;27;20071;-40
2021/04/22 01:53:42;;;;;;;13.85;3.33;;;;;;;4.17;64.29;102511.84;5135318;27;19907;-40
2021/04/22 01:56:08;;;;;;;13.20;3.93;;;;;;;4.13;63.73;102513.13;5135759;27;20112;-40
2021/04/22 01:58:34;;;;;;;14.50;3.88;;;;;;;4.01;64.87;102512.47;5134876;27;20049;-40
2021/04/22 02:01:00;;;;;;;11.27;2.97;;;;;;;3.98;64.42;102519.94;5135674;27;20023;-40
2021/04/22 02:03:32;;;;;;;15.25;3.42;;;;;;;3.96;64.69;102513.91;5134836;27;20034;-40
2021/04/22 02:05:58;;;;;;;20.20;4.07;;;;;;;3.91;65.45;102518.88;5135640;27;20031;-40
2021/04/22 02:08:23;;;;;;;14.45;3.55;;;;;;;3.92;64.49;102516.03;5135583;27;20034;-40
2021/04/22 02:10:49;;;;;;;16.57;3.63;;;;;;;3.94;64.54;102522.06;5135292;27;20023;-40
2021/04/22 02:13:16;;;;;;;12.10;3.40;;;;;;;3.91;65.38;102522.38;5133906;27;20034;-40
2021/04/22 02:15:43;;;;;;;16.17;4.50;;;;;;;3.88;64.81;102520.00;5134834;27;20027;-40
2021/04/22 02:18:08;;;;;;;14.73;3.35;;;;;;;3.92;64.48;102523.22;5134884;27;20115;-40
2021/04/22 02:20:34;;;;;;;13.83;3.43;;;;;;;3.81;63.81;102527.75;5135133;27;20110;-40
2021/04/22 02:23:00;;;;;;;12.45;3.25;;;;;;;3.73;64.83;102527.63;5135006;27;20068;-40
2021/04/22 02:25:27;;;;;;;11.93;3.53;;;;;;;3.71;63.78;102526.97;5134983;27;20062;-40
2021/04/22 02:27:54;;;;;;;15.65;3.75;;;;;;;3.69;65.13;102531.59;5133715;27;20382;-40
2021/04/22 02:30:21;;;;;;;14.00;4.38;;;;;;;3.58;66.01;102534.44;5134956;27;20061;-40
2021/04/22 02:32:48;;;;;;;17.73;4.70;;;;;;;3.55;66.30;102535.56;5134347;27;20508;-40
2021/04/22 02:35:17;;;;;;;11.63;3.63;;;;;;;3.61;65.77;102528.78;5134803;27;20114;-40
2021/04/22 02:37:42;;;;;;;15.10;4.03;;;;;;;3.70;65.44;102527.91;5134457;27;20030;-40
2021/04/22 02:40:10;;;;;;;13.87;3.83;;;;;;;3.56;65.24;102529.25;5135340;27;20035;-40
2021/04/22 02:42:36;;;;;;;14.88;3.75;;;;;;;3.49;65.69;102529.94;5134716;27;20035;-40
2021/04/22 02:45:06;;;;;;;10.90;3.42;;;;;;;3.60;66.00;102521.75;5134211;27;20479;-40
2021/04/22 02:47:31;;;;;;;16.08;3.63;;;;;;;3.62;66.10;102525.13;5134323;27;20068;-40
2021/04/22 02:49:57;;;;;;;12.67;3.10;;;;;;;3.45;64.46;102529.38;5134693;27;20035;-40
2021/04/22 02:52:22;;;;;;;16.03;3.67;;;;;;;3.47;65.77;102527.41;5132875;27;20209;-40
2021/04/22 02:54:47;;;;;;;16.07;4.00;;;;;;;3.51;66.25;102522.59;5134394;27;20062;-40
2021/04/22 02:57:13;;;;;;;16.23;3.83;;;;;;;3.41;66.49;102519.09;5134643;27;20051;-40
2021/04/22 02:59:39;;;;;;;13.45;3.58;;;;;;;3.31;66.16;102529.81;5134821;27;20026;-40
2021/04/22 03:02:04;;;;;;;13.32;3.28;;;;;;;3.26;65.66;102530.25;5134240;28;20068;-40
2021/04/22 03:04:29;;;;;;;12.17;3.83;;;;;;;3.28;66.76;102536.31;5134562;28;20027;-40
2021/04/22 03:06:55;;;;;;;10.67;3.23;;;;;;;3.19;63.46;102534.47;5134209;28;20080;-40
2021/04/22 03:09:20;;;;;;;15.03;4.00;;;;;;;3.17;66.78;102541.78;5134414;28;20048;-40
2021/04/22 03:11:45;;;;;;;15.47;4.03;;;;;;;3.20;67.62;102546.84;5134358;28;20023;-40
2021/04/22 03:14:11;;;;;;;15.77;4.03;;;;;;;3.26;67.18;102546.28;5134367;28;20031;-40
2021/04/22 03:16:36;;;;;;;15.07;3.93;;;;;;;3.26;66.96;102535.59;5134003;28;20033;-40
2021/04/22 03:19:02;;;;;;;11.53;3.47;;;;;;;3.17;66.37;102538.25;5133898;28;20058;-40
2021/04/22 03:21:27;;;;;;;12.00;3.23;;;;;;;3.15;66.74;102542.91;5134020;28;20042;-40
2021/04/22 03:23:52;;;;;;;16.50;4.20;;;;;;;3.15;66.61;102548.25;5133850;28;20143;-40
2021/04/22 03:26:18;;;;;;;14.27;3.53;;;;;;;2.94;67.81;102545.72;5133955;28;20103;-40
2021/04/22 03:28:44;;;;;;;15.87;3.97;;;;;;;2.88;67.44;102544.47;5133859;28;20034;-40
2021/04/22 03:31:09;;;;;;;12.15;4.00;;;;;;;2.89;67.73;102534.63;5133523;28;20077;-40
2021/04/22 03:33:34;;;;;;;12.97;3.50;;;;;;;2.93;68.25;102541.34;5134302;28;20035;-40
2021/04/22 03:35:59;;;;;;;16.40;4.17;;;;;;;2.91;68.65;102540.66;5133762;28;20109;-40
2021/04/22 03:38:25;;;;;;;10.90;3.10;;;;;;;2.91;67.65;102543.31;5132454;28;20031;-40
2021/04/22 03:40:50;;;;;;;13.17;3.57;;;;;;;2.86;67.14;102538.41;5133772;27;20109;-40
2021/04/22 03:43:16;;;;;;;11.20;3.67;;;;;;;2.86;67.65;102537.56;5136045;27;20448;-40
2021/04/22 03:45:41;;;;;;;13.83;3.47;;;;;;;2.77;68.00;102539.22;5137765;27;20114;-43
2021/04/22 03:48:06;;;;;;;11.97;3.33;;;;;;;2.70;66.81;102536.28;5137958;27;20023;-40
2021/04/22 03:50:32;;;;;;;13.20;3.85;;;;;;;2.70;68.53;102544.28;5138189;27;20019;-40
2021/04/22 03:52:57;;;;;;;16.10;4.17;;;;;;;2.79;68.39;102538.13;5137627;27;20046;-40
2021/04/22 03:55:23;;;;;;;14.17;3.60;;;;;;;2.78;68.38;102540.91;5138193;27;20054;-40
2021/04/22 03:57:49;;;;;;;13.85;3.53;;;;;;;2.77;69.23;102536.56;5137529;27;20039;-40
2021/04/22 04:00:18;;;;;;;13.50;3.60;;;;;;;2.80;68.48;102534.47;5137746;27;20371;-40
2021/04/22 04:02:43;;;;;;;11.50;4.00;;;;;;;2.82;68.21;102535.16;5137824;27;20103;-40
2021/04/22 04:05:09;;;;;;;12.63;3.83;;;;;;;2.78;68.43;102540.91;5137499;27;20153;-40
2021/04/22 04:07:35;;;;;;;12.10;3.78;;;;;;;2.88;69.03;102540.91;5137744;27;20023;-40
2021/04/22 04:10:01;;;;;;;13.30;3.80;;;;;;;2.90;68.11;102545.16;5137635;27;20027;-40
2021/04/22 04:12:27;;;;;;;17.20;4.45;;;;;;;2.96;68.65;102546.41;5136973;27;20027;-40
2021/04/22 04:14:53;;;;;;;13.73;3.47;;;;;;;2.92;68.75;102542.34;5137742;27;20373;-40
2021/04/22 04:17:18;;;;;;;12.63;3.78;;;;;;;2.91;69.08;102551.34;5136878;27;20027;-40
2021/04/22 04:19:44;;;;;;;12.43;4.23;;;;;;;2.92;69.28;102561.03;5137245;27;20079;-40
2021/04/22 04:22:09;;;;;;;17.47;3.80;;;;;;;2.84;69.39;102557.25;5137098;27;20079;-40
2021/04/22 04:24:34;;;;;;;11.43;3.80;;;;;;;2.81;68.66;102560.19;5137086;27;20374;-40
2021/04/22 04:27:00;;;;;;;12.47;4.07;;;;;;;2.80;68.45;102574.53;5136688;27;20046;-39
2021/04/22 04:29:25;;;;;;;16.83;4.13;;;;;;;2.72;68.78;102569.03;5137256;27;20030;-39
2021/04/22 04:31:50;;;;;;;13.13;3.77;;;;;;;2.69;68.65;102568.47;5137447;27;20023;-40
2021/04/22 04:34:16;;;;;;;9.33;3.93;;;;;;;2.65;69.40;102572.41;5136881;27;20054;-40
2021/04/22 04:36:46;;;;;;;11.33;3.77;;;;;;;2.65;69.15;102562.56;5136701;27;20107;-40
2021/04/22 04:39:15;;;;;;;12.68;4.22;;;;;;;2.61;69.57;102565.63;5136800;27;20015;-40
2021/04/22 04:41:41;;;;;;;12.57;4.03;;;;;;;2.73;69.50;102561.84;5136440;27;20103;-40
2021/04/22 04:44:07;;;;;;;12.55;4.07;;;;;;;2.63;69.35;102569.84;5136276;27;20039;-40
2021/04/22 04:46:33;;;;;;;16.75;5.28;;;;;;;2.74;68.75;102576.91;5136892;27;20035;-40
2021/04/22 04:48:59;;;;;;;11.27;4.07;;;;;;;2.73;69.02;102578.75;5136623;27;20053;-40
2021/04/22 04:51:24;;;;;;;13.88;4.75;;;;;;;2.83;69.23;102574.28;5136849;27;20374;-40
2021/04/22 04:53:51;;;;;;;17.67;4.27;;;;;;;2.89;68.60;102580.03;5136033;27;20106;-40
2021/04/22 04:56:18;;;;;;;15.38;4.82;;;;;;;2.95;67.83;102574.13;5136503;27;20443;-40
2021/04/22 04:58:44;;;;;;;17.52;5.03;;;;;;;2.87;69.37;102576.66;5136571;27;20054;-40
2021/04/22 05:01:09;;;;;;;14.75;4.38;;;;;;;2.90;68.97;102571.03;5136391;27;20371;-40
2021/04/22 05:03:34;;;;;;;13.90;4.70;;;;;;;3.08;69.15;102578.25;5136304;27;20023;-40
2021/04/22 05:06:00;;;;;;;13.47;4.30;;;;;;;3.07;68.86;102583.69;5136882;27;20042;-40
2021/04/22 05:08:25;;;;;;;14.83;4.50;;;;;;;3.19;68.77;102582.59;5135359;27;20039;-40
2021/04/22 05:10:50;;;;;;;8.50;4.57;;;;;;;3.24;68.66;102590.19;5136231;27;20027;-40
2021/04/22 05:13:16;;;;;;;12.40;4.27;;;;;;;3.23;69.20;102596.53;5134752;27;20035;-40
2021/04/22 05:15:41;;;;;;;13.93;5.07;;;;;;;3.32;68.33;102596.53;5136269;27;20046;-40
2021/04/22 05:18:07;;;;;;;18.83;5.65;;;;;;;3.34;68.85;102601.75;5136032;27;20459;-40
2021/04/22 05:20:32;;;;;;;16.10;5.30;;;;;;;3.46;68.51;102602.44;5136770;27;20034;-40
2021/04/22 05:22:58;;;;;;;13.10;5.03;;;;;;;3.28;69.16;102596.97;5136169;27;20034;-40
2021/04/22 05:25:23;;;;;;;11.83;4.77;;;;;;;3.31;68.28;102599.34;5136170;27;20249;-40
2021/04/22 05:27:49;;;;;;;14.33;4.77;;;;;;;3.43;68.84;102592.03;5136570;27;20027;-40
2021/04/22 05:30:14;;;;;;;16.43;5.30;;;;;;;3.50;68.46;102598.50;5136313;27;20023;-40
2021/04/22 05:32:40;;;;;;;16.33;4.63;;;;;;;3.55;68.38;102605.09;5135609;27;20487;-40
2021/04/22 05:35:06;;;;;;;15.73;4.60;;;;;;;3.67;69.18;102605.81;5135921;27;20084;-40
2021/04/22 05:37:31;;;;;;;18.65;4.70;;;;;;;3.67;68.38;102608.50;5135643;27;20033;-40
2021/04/22 05:39:56;;;;;;;13.67;4.30;;;;;;;3.74;67.71;102614.94;5136220;27;20106;-40
2021/04/22 05:42:22;;;;;;;12.87;5.13;;;;;;;3.82;68.27;102615.09;5135318;27;20023;-40
2021/04/22 05:44:47;;;;;;;15.47;4.70;;;;;;;3.88;67.78;102621.69;5136044;27;20065;-40
2021/04/22 05:47:12;;;;;;;16.17;4.83;;;;;;;4.02;67.82;102623.06;5135883;27;20106;-40
2021/04/22 05:49:38;;;;;;;15.57;4.53;;;;;;;4.11;67.74;102620.38;5135456;27;20042;-40
2021/04/22 05:52:04;;;;;;;17.03;4.63;;;;;;;4.25;67.05;102624.44;5135025;27;20059;-40
2021/04/22 05:54:30;;;;;;;17.33;5.05;;;;;;;4.36;66.62;102632.28;5135478;27;20038;-40
2021/04/22 05:56:55;;;;;;;18.73;5.03;;;;;;;4.51;66.81;102627.28;5135711;27;20399;-40
2021/04/22 05:59:20;;;;;;;17.27;5.33;;;;;;;4.62;66.21;102631.59;5134951;27;20517;-40
2021/04/22 06:01:46;;;;;;;11.77;4.10;;;;;;;4.72;65.56;102636.91;5135166;27;20030;-40
2021/04/22 06:04:11;;;;;;;12.67;4.27;;;;;;;4.82;64.85;102635.88;5135450;27;20045;-40
2021/04/22 06:06:37;;;;;;;14.83;4.77;;;;;;;4.90;65.39;102637.81;5134777;27;20079;-40
2021/04/22 06:09:03;;;;;;;15.57;5.43;;;;;;;4.96;64.96;102637.19;5134799;27;20035;-40
2021/04/22 06:11:28;;;;;;;12.85;4.47;;;;;;;5.03;64.46;102640.16;5134719;27;20160;-40
2021/04/22 06:13:54;;;;;;;15.47;4.27;;;;;;;5.06;64.80;102642.50;5135453;27;20024;-40
2021/04/22 06:16:19;;;;;;;20.27;5.30;;;;;;;5.12;64.58;102639.22;5135113;27;20069;-40
2021/04/22 06:18:45;;;;;;;14.83;4.37;;;;;;;5.21;64.52;102635.63;5135070;27;20467;-40
2021/04/22 06:21:11;;;;;;;17.70;5.60;;;;;;;5.33;63.84;102645.16;5135417;27;20026;-40
2021/04/22 06:23:37;;;;;;;12.82;4.40;;;;;;;5.44;64.08;102646.75;5133451;27;20031;-40
2021/04/22 06:26:03;;;;;;;21.80;5.25;;;;;;;5.49;63.80;102648.97;5134805;27;20539;-40
2021/04/22 06:28:28;;;;;;;11.77;4.33;;;;;;;5.60;64.16;102646.91;5135360;27;20102;-40
2021/04/22 06:30:53;;;;;;;11.33;4.00;;;;;;;5.69;62.54;102654.03;5135186;27;20031;-40
2021/04/22 06:33:19;;;;;;;16.13;4.50;;;;;;;5.83;62.48;102660.69;5134675;27;20467;-40
2021/04/22 06:35:45;;;;;;;15.05;4.07;;;;;;;5.96;62.38;102646.06;5134695;27;20456;-40
2021/04/22 06:38:10;;;;;;;14.98;4.35;;;;;;;6.08;61.77;102647.47;5134588;27;20168;-40
2021/04/22 06:40:36;;;;;;;12.93;3.90;;;;;;;6.16;61.82;102648.38;5134758;27;20027;-40
2021/04/22 06:43:02;;;;;;;10.07;3.58;;;;;;;6.25;60.80;102654.66;5134444;27;20031;-40
2021/04/22 06:45:27;;;;;;;10.73;3.65;;;;;;;6.33;61.42;102656.53;5134514;27;20027;-40
2021/04/22 06:47:52;;;;;;;8.60;3.40;;;;;;;6.49;60.69;102661.16;5133060;27;20062;-40
2021/04/22 06:50:20;;;;;;;11.87;3.40;;;;;;;6.54;60.61;102654.31;5134256;27;20023;-40
2021/04/22 06:52:46;;;;;;;13.25;3.85;;;;;;;6.63;60.71;102663.25;5134319;27;20023;-40
2021/04/22 06:55:19;;;;;;;10.60;4.00;;;;;;;6.68;60.09;102656.38;5134572;27;20540;-40
2021/04/22 06:57:44;;;;;;;12.00;3.85;;;;;;;6.68;59.37;102663.59;5135018;27;20043;-40
2021/04/22 07:00:12;;;;;;;11.53;3.43;;;;;;;6.66;58.60;102665.63;5134220;27;20034;-40
2021/04/22 07:02:38;;;;;;;13.18;4.00;;;;;;;6.56;59.70;102668.44;5134110;28;20023;-40
2021/04/22 07:05:08;;;;;;;11.02;3.03;;;;;;;6.56;59.33;102673.81;5134425;28;20042;-40
2021/04/22 07:07:33;;;;;;;13.68;3.92;;;;;;;6.56;59.95;102673.81;5133944;28;20031;-40
2021/04/22 07:09:59;;;;;;;11.82;3.38;;;;;;;6.73;59.79;102674.72;5134132;28;20192;-40
2021/04/22 07:12:25;;;;;;;12.75;3.45;;;;;;;6.85;59.50;102675.28;5134022;28;20434;-40
2021/04/22 07:14:51;;;;;;;;;;;;;;;7.04;59.34;102679.56;5135107;28;20038;-40
2021/04/22 07:17:17;;;;;;;13.60;2.63;;;;;;;7.07;57.45;102682.75;5137142;27;19915;-40
2021/04/22 07:19:42;;;;;;;10.13;2.95;;;;;;;7.17;57.28;102685.31;5138741;27;20034;-40
2021/04/22 07:22:07;;;;;;;13.00;3.40;;;;;;;7.24;57.43;102686.34;5138225;27;20019;-40
2021/04/22 07:24:33;;;;;;;8.37;3.20;;;;;;;7.28;56.38;102685.03;5137886;27;20019;-40
2021/04/22 07:26:58;;;;;;;8.90;3.17;;;;;;;7.42;56.02;102686.25;5138189;27;20031;-40
2021/04/22 07:29:23;;;;;;;10.73;2.83;;;;;;;7.52;56.58;102684.25;5137809;27;20027;-40
2021/04/22 07:31:49;;;;;;;8.63;2.67;;;;;;;7.60;55.91;102692.31;5136827;27;20265;-40
2021/04/22 07:34:15;;;;;;;12.77;3.63;;;;;;;7.61;55.13;102691.31;5138766;27;20029;-40
2021/04/22 07:36:40;;;;;;;12.05;2.95;;;;;;;7.63;55.20;102694.69;5138127;27;20751;-40
2021/04/22 07:39:06;;;;;;;14.57;2.83;;;;;;;7.70;53.90;102693.00;5137928;27;20024;-40
2021/04/22 07:41:31;;;;;;;14.87;3.33;;;;;;;7.75;54.39;102700.56;5137830;27;20039;-40
2021/04/22 07:43:57;;;;;;;10.25;3.05;;;;;;;7.83;54.96;102700.59;5137719;27;20034;-40
2021/04/22 07:46:22;;;;;;;12.43;3.10;;;;;;;7.85;54.61;102698.56;5138644;27;20035;-40
2021/04/22 07:48:48;;;;;;;14.57;3.60;;;;;;;8.00;53.91;102704.97;5137745;27;20050;-40
2021/04/22 07:51:13;;;;;;;9.93;2.83;;;;;;;8.12;54.63;102710.03;5138051;27;20292;-40
2021/04/22 07:53:38;;;;;;;13.00;3.40;;;;;;;8.14;54.59;102702.59;5138182;27;20074;-40
2021/04/22 07:56:04;;;;;;;11.20;3.00;;;;;;;8.12;52.50;102699.25;5137830;27;20093;-40
2021/04/22 07:58:31;;;;;;;12.87;3.50;;;;;;;7.91;51.82;102700.59;5137487;27;20041;-40
2021/04/22 08:00:57;;;;;;;10.23;2.65;;;;;;;8.21;53.22;102695.53;5137787;27;20047;-40
2021/04/22 08:03:23;;;;;;;7.28;2.13;;;;;;;8.36;52.25;102699.25;5137390;27;20054;-40
2021/04/22 08:05:54;;;;;;;8.90;2.77;;;;;;;8.38;52.97;102697.19;5137680;27;20067;-40
2021/04/22 08:08:20;;;;;;;10.27;2.20;;;;;;;8.34;52.10;102700.38;5137066;27;20088;-40
2021/04/22 08:10:46;;;;;;;10.33;2.33;;;;;;;8.35;52.72;102697.53;5137949;27;20023;-40
2021/04/22 08:13:14;;;;;;;8.27;2.80;;;;;;;8.46;52.08;102707.97;5137271;27;20387;-40
2021/04/22 08:15:42;;;;;;;9.52;2.03;;;;;;;8.48;51.22;102700.56;5137474;27;20038;-40
2021/04/22 08:18:07;;;;;;;8.70;2.53;;;;;;;8.54;51.88;102703.56;5127465;27;20027;-40
2021/04/22 08:20:34;;;;;;;8.90;2.88;;;;;;;8.47;51.35;102706.97;5116668;28;20031;-40
2021/04/22 08:23:00;;;;;;;;;;;;;;;8.65;52.07;102711.31;5117514;28;20452;-40
2021/04/22 08:25:29;;;;;;;10.88;2.25;;;;;;;8.67;51.19;102711.97;5116885;28;19950;-41
2021/04/22 08:27:56;;;;;;;11.90;2.95;;;;;;;8.64;51.36;102715.88;5115663;27;20421;-40
2021/04/22 08:30:37;;;;;;;12.75;2.50;;;;;;;8.63;51.32;102710.63;5116543;27;20055;-41
2021/04/22 08:33:03;;;;;;;10.60;1.90;;;;;;;8.63;50.03;102716.03;5116392;28;20020;-41
2021/04/22 08:35:29;;;;;;;13.75;2.50;;;;;;;8.63;51.10;102716.03;5116687;28;20023;-41
2021/04/22 08:37:55;;;;;;;9.93;2.42;;;;;;;8.76;51.20;102725.25;5116057;28;20035;-41
2021/04/22 08:40:22;;;;;;;10.68;2.95;;;;;;;8.89;51.14;102722.03;5116633;28;20028;-39
2021/04/22 08:42:48;;;;;;;13.25;2.22;;;;;;;9.12;50.89;102718.56;5116275;28;20114;-39
2021/04/22 08:45:15;;;;;;;11.10;2.42;;;;;;;9.16;49.88;102722.59;5116195;28;20077;-40
2021/04/22 08:47:41;;;;;;;8.38;2.15;;;;;;;9.55;49.18;102726.06;5116118;28;20035;-40
2021/04/22 08:50:14;;;;;;;9.68;2.47;;;;;;;9.93;48.97;102725.31;5115768;28;20460;-40
2021/04/22 08:52:39;;;;;;;7.50;1.85;;;;;;;10.12;49.16;102721.28;5116820;28;20026;-47
2021/04/22 08:55:07;;;;;;;12.03;2.40;;;;;;;10.31;47.07;102715.41;5116259;28;20447;-40
2021/04/22 08:57:33;;;;;;;10.15;2.45;;;;;;;10.14;46.55;102719.22;5116462;28;20075;-40
2021/04/22 08:59:58;;;;;;;10.00;2.30;;;;;;;9.98;47.56;102718.34;5116394;28;20120;-39
2021/04/22 09:02:24;;;;;;;11.10;2.65;;;;;;;9.83;47.17;102733.66;5115867;28;20028;-40
2021/04/22 09:04:49;;;;;;;14.00;3.33;;;;;;;9.55;47.21;102723.38;5116230;28;20038;-40
2021/04/22 09:07:15;;;;;;;8.17;2.20;;;;;;;9.71;46.25;102727.84;5116020;28;20059;-40
2021/04/22 09:09:42;;;;;;;7.72;2.08;;;;;;;9.90;46.91;102714.88;5115482;28;20066;-40
2021/04/22 09:12:19;;;;;;;7.60;2.40;;;;;;;9.99;46.58;102716.47;5115368;28;20460;-40
2021/04/22 09:14:57;;;;;;;9.38;2.70;;;;;;;10.07;46.58;102714.56;5115875;28;20024;-40
2021/04/22 09:17:24;;;;;;;11.05;2.70;;;;;;;10.20;46.63;102708.53;5115839;28;20490;-40
2021/04/22 09:19:50;;;;;;;11.52;2.78;;;;;;;10.00;47.30;102713.63;5115244;28;20031;-40
2021/04/22 09:22:15;;;;;;;;;;;;;;;10.13;47.62;102715.69;5116341;28;20375;-40
2021/04/22 09:24:41;;;;;;;6.75;1.95;;;;;;;10.00;46.54;102718.16;5115162;28;19921;-40
2021/04/22 09:27:16;;;;;;;8.80;1.90;;;;;;;9.96;47.07;102720.41;5114680;28;20046;-40
2021/04/22 09:29:50;;;;;;;8.45;2.30;;;;;;;9.84;47.23;102713.72;5115810;28;20023;-40
2021/04/22 09:32:20;;;;;;;12.98;3.20;;;;;;;9.92;46.78;102721.78;5115193;28;20106;-40
2021/04/22 09:34:55;;;;;;;11.90;2.58;;;;;;;9.51;46.84;102711.25;5115641;28;20455;-40
2021/04/22 09:37:24;;;;;;;7.85;2.28;;;;;;;9.86;46.91;102724.34;5115088;28;20056;-40
2021/04/22 09:39:51;;;;;;;8.80;2.70;;;;;;;9.97;46.86;102722.06;5115098;28;20035;-40
2021/04/22 09:42:18;;;;;;;8.55;2.72;;;;;;;10.20;46.02;102721.19;5114644;28;20023;-40
2021/04/22 09:44:47;;;;;;;10.18;2.53;;;;;;;10.24;46.84;102720.69;5115222;28;20371;-40
2021/04/22 09:47:23;;;;;;;10.73;3.05;;;;;;;10.35;45.64;102716.72;5115150;28;20430;-40
2021/04/22 09:49:52;;;;;;;5.82;2.05;;;;;;;10.40;46.98;102726.97;5115104;28;20024;-40
2021/04/22 09:52:20;;;;;;;10.98;2.67;;;;;;;10.37;45.88;102722.78;5114771;28;20421;-40
2021/04/22 09:54:54;;;;;;;9.70;2.35;;;;;;;10.54;46.53;102720.72;5114689;28;20032;-41
2021/04/22 09:57:28;;;;;;;8.02;2.05;;;;;;;10.45;46.70;102711.03;5115126;28;20058;-40
2021/04/22 09:59:54;;;;;;;5.95;2.00;;;;;;;10.45;45.70;102727.28;5115471;28;20027;-40
2021/04/22 10:02:20;;;;;;;7.50;2.40;;;;;;;10.45;45.12;102722.69;5114792;28;20027;-40
2021/04/22 10:04:48;;;;;;;6.15;1.95;;;;;;;10.64;46.06;102728.56;5114818;28;20070;-40
2021/04/22 10:07:33;;;;;;;16.90;2.58;;;;;;;10.69;45.53;102726.19;5115387;28;20122;-40
2021/04/22 10:10:01;;;;;;;8.30;2.95;;;;;;;10.71;44.42;102716.00;5114269;28;20031;-40
2021/04/22 10:12:27;;;;;;;7.70;2.40;;;;;;;10.32;44.30;102722.47;5115133;28;20431;-40
2021/04/22 10:14:54;;;;;;;9.57;2.83;;;;;;;10.27;45.30;102723.03;5114604;28;20023;-40
2021/04/22 10:17:22;;;;;;;7.65;2.40;;;;;;;10.46;44.29;102708.13;5114635;28;20039;-40
2021/04/22 10:20:04;;;;;;;7.20;2.33;;;;;;;10.82;45.31;102713.66;5115089;28;20031;-40
2021/04/22 10:22:36;;;;;;;11.55;2.80;;;;;;;11.20;44.30;102712.69;5114550;27;20122;-40
2021/04/22 10:25:06;;;;;;;9.88;2.40;;;;;;;11.45;42.54;102703.19;5114287;28;20074;-40
2021/04/22 10:27:31;;;;;;;9.88;2.78;;;;;;;11.57;42.52;102701.66;5114475;28;20399;-40
2021/04/22 10:29:58;;;;;;;8.30;2.47;;;;;;;11.46;42.25;102709.44;5114317;28;20034;-40
2021/04/22 10:32:24;;;;;;;6.18;2.30;;;;;;;11.31;42.59;102696.78;5114270;28;20031;-40
2021/04/22 10:34:51;;;;;;;5.05;2.03;;;;;;;11.42;43.39;102703.59;5114006;28;20039;-40
2021/04/22 10:37:18;;;;;;;5.80;2.40;;;;;;;11.63;43.20;102705.47;5114007;28;20490;-40
2021/04/22 10:39:45;;;;;;;9.10;2.45;;;;;;;11.89;42.58;102693.22;5113983;28;20391;-40
2021/04/22 10:42:11;;;;;;;6.57;2.35;;;;;;;12.32;43.12;102696.72;5113155;28;20425;-40
2021/04/22 10:44:37;;;;;;;8.32;2.60;;;;;;;12.54;41.84;102705.63;5113699;28;20036;-40
2021/04/22 10:47:03;;;;;;;6.00;2.10;;;;;;;12.49;41.20;102697.25;5113989;28;20085;-40
2021/04/22 10:49:28;;;;;;;6.32;2.20;;;;;;;12.55;40.78;102697.31;5114509;28;20039;-40
2021/04/22 10:51:54;;;;;;;11.23;2.53;;;;;;;12.88;39.99;102693.91;5114161;28;20054;-40
2021/04/22 10:54:20;;;;;;;10.80;3.17;;;;;;;12.56;39.56;102685.41;5113830;28;20475;-40
2021/04/22 10:56:46;;;;;;;8.07;2.63;;;;;;;12.82;41.76;102692.03;5114095;28;20054;-40
2021/04/22 10:59:20;;;;;;;8.25;2.60;;;;;;;12.69;39.93;102695.53;5113400;28;20071;-40
2021/04/22 11:01:45;;;;;;;7.18;2.05;;;;;;;12.90;39.98;102675.56;5114753;28;20028;-40
2021/04/22 11:04:11;;;;;;;6.88;2.42;;;;;;;13.10;41.51;102683.81;5113809;28;20050;-40
2021/04/22 11:06:41;;;;;;;6.63;2.27;;;;;;;13.32;38.77;102685.38;5114586;28;20312;-40
2021/04/22 11:09:21;;;;;;;6.43;2.22;;;;;;;13.43;40.19;102694.81;5113648;28;20476;-40
2021/04/22 11:11:58;;;;;;;7.85;2.83;;;;;;;13.52;39.94;102688.16;5114549;28;20035;-40
2021/04/22 11:14:35;;;;;;;7.78;2.25;;;;;;;13.78;39.88;102686.50;5113928;28;20379;-40
2021/04/22 11:17:01;;;;;;;;;;;;;;;14.11;40.39;102681.94;5114063;28;20034;-40
2021/04/22 11:19:40;;;;;;;9.77;2.72;;;;;;;13.79;38.53;102690.91;5113504;28;19990;-40
2021/04/22 11:22:07;;;;;;;9.80;3.22;;;;;;;13.33;39.23;102697.91;5114397;28;20027;-40
2021/04/22 11:24:42;;;;;;;4.78;2.10;;;;;;;12.75;39.46;102693.88;5113346;28;20024;-40